Time;durP1;ratioP1;P1;durP2;ratioP2;P2;SDS_P1;SDS_P2;PMS_P1;PMS_P2;Temp;Humidity;BMP_temperature;BMP_pressure;BME280_temperature;BME280_humidity;BME280_pressure;Samples;Min_cycle;Max_cycle;Signal;HPM_P1;HPM_P2
2021/05/29 00:01:10;;;;;;;1.15;0.90;;;;;;;;;;5050389;28;20067;-81
2021/05/29 00:03:37;;;;;;;1.77;0.90;;;;;;;;;;5068482;28;20094;-81
2021/05/29 00:06:04;;;;;;;1.00;1.00;;;;;;;;;;5069339;28;20631;-82
2021/05/29 00:08:42;;;;;;;3.13;1.15;;;;;;;;;;5060542;28;20048;-82
2021/05/29 00:11:09;;;;;;;1.42;0.98;;;;;;;;;;5072039;28;20045;-82
2021/05/29 00:13:37;;;;;;;1.52;1.42;;;;;;;;;;5065416;28;20132;-82
2021/05/29 00:16:04;;;;;;;1.88;0.90;;;;;;;;;;5085054;28;20408;-81
2021/05/29 00:18:31;;;;;;;2.17;0.93;;;;;;;;;;5071524;28;20054;-81
2021/05/29 00:20:58;;;;;;;1.02;1.02;;;;;;;;;;5070954;28;20028;-81
2021/05/29 00:23:24;;;;;;;0.90;0.90;;;;;;;;;;5070372;28;20127;-82
2021/05/29 00:25:51;;;;;;;0.90;0.90;;;;;;;;;;5071306;28;20123;-82
2021/05/29 00:28:18;;;;;;;1.10;0.90;;;;;;;;;;5067814;28;20036;-81
2021/05/29 00:30:45;;;;;;;0.90;0.90;;;;;;;;;;5071659;28;20474;-81
2021/05/29 00:33:12;;;;;;;0.90;0.90;;;;;;;;;;5063224;28;20047;-81
2021/05/29 00:35:39;;;;;;;3.40;0.90;;;;;;;;;;5063149;28;20033;-81
2021/05/29 00:38:06;;;;;;;0.90;0.90;;;;;;;;;;5071862;28;20045;-81
2021/05/29 00:40:33;;;;;;;1.23;1.00;;;;;;;;;;5070901;28;20067;-81
2021/05/29 00:43:00;;;;;;;1.10;1.05;;;;;;;;;;5064613;28;20041;-81
2021/05/29 00:45:27;;;;;;;0.98;0.98;;;;;;;;;;5072833;28;20041;-81
2021/05/29 00:47:55;;;;;;;1.00;1.00;;;;;;;;;;5103992;28;20036;-81
2021/05/29 00:50:22;;;;;;;1.00;1.00;;;;;;;;;;5072572;28;20579;-81
2021/05/29 00:52:49;;;;;;;0.90;0.90;;;;;;;;;;5069653;28;20040;-81
2021/05/29 00:55:16;;;;;;;1.95;0.90;;;;;;;;;;5072273;28;20497;-81
2021/05/29 00:57:45;;;;;;;1.40;0.90;;;;;;;;;;5070358;28;20044;-81
2021/05/29 01:00:12;;;;;;;1.58;1.00;;;;;;;;;;5065622;28;20040;-81
2021/05/29 01:02:39;;;;;;;0.90;0.90;;;;;;;;;;5101039;28;20045;-81
2021/05/29 01:05:08;;;;;;;1.15;1.15;;;;;;;;;;5072678;28;20135;-81
2021/05/29 01:07:35;;;;;;;0.93;0.93;;;;;;;;;;5070921;28;20085;-81
2021/05/29 01:10:03;;;;;;;1.88;1.10;;;;;;;;;;5071373;28;20047;-81
2021/05/29 01:12:30;;;;;;;1.10;1.00;;;;;;;;;;5069605;28;20139;-81
2021/05/29 01:14:59;;;;;;;1.42;1.13;;;;;;;;;;5063747;28;20040;-81
2021/05/29 01:17:28;;;;;;;1.00;1.00;;;;;;;;;;5071889;28;20106;-82
2021/05/29 01:19:55;;;;;;;1.15;1.00;;;;;;;;;;5069124;28;20397;-81
2021/05/29 01:22:35;;;;;;;1.05;1.05;;;;;;;;;;5070401;28;20041;-82
2021/05/29 01:25:09;;;;;;;0.90;0.90;;;;;;;;;;5068974;28;20036;-81
2021/05/29 01:27:37;;;;;;;0.98;0.98;;;;;;;;;;5070676;28;20032;-81
2021/05/29 01:30:05;;;;;;;1.40;0.95;;;;;;;;;;5041430;28;20123;-81
2021/05/29 01:32:34;;;;;;;1.60;1.52;;;;;;;;;;5078789;28;20044;-81
2021/05/29 01:35:03;;;;;;;1.05;1.00;;;;;;;;;;5069025;28;20055;-81
2021/05/29 01:37:30;;;;;;;1.00;1.00;;;;;;;;;;5072311;28;20560;-81
2021/05/29 01:39:57;;;;;;;0.90;0.90;;;;;;;;;;5071103;28;20067;-81
2021/05/29 01:42:25;;;;;;;5.47;1.00;;;;;;;;;;5056968;28;20045;-81
2021/05/29 01:44:53;;;;;;;1.70;0.90;;;;;;;;;;5097858;28;20056;-81
2021/05/29 01:47:20;;;;;;;0.93;0.93;;;;;;;;;;5070708;28;20041;-81
2021/05/29 01:49:47;;;;;;;1.50;1.20;;;;;;;;;;5050092;28;20060;-81
2021/05/29 01:52:13;;;;;;;1.00;1.00;;;;;;;;;;5061485;28;20087;-81
2021/05/29 01:54:40;;;;;;;1.15;1.00;;;;;;;;;;5056014;28;20133;-81
2021/05/29 01:57:07;;;;;;;1.00;1.00;;;;;;;;;;5069615;28;20373;-81
2021/05/29 01:59:34;;;;;;;1.65;1.05;;;;;;;;;;5067790;28;20049;-81
2021/05/29 02:02:00;;;;;;;1.02;1.02;;;;;;;;;;5071050;28;20087;-81
2021/05/29 02:04:27;;;;;;;1.58;0.90;;;;;;;;;;5068708;28;20037;-81
2021/05/29 02:06:54;;;;;;;2.05;0.90;;;;;;;;;;5086046;28;20052;-81
2021/05/29 02:09:21;;;;;;;1.00;1.00;;;;;;;;;;5095727;28;20025;-81
2021/05/29 02:11:48;;;;;;;1.10;1.00;;;;;;;;;;5056036;28;20033;-81
2021/05/29 02:14:14;;;;;;;0.90;0.90;;;;;;;;;;5072029;28;20040;-81
2021/05/29 02:16:42;;;;;;;1.83;1.10;;;;;;;;;;5067837;28;20505;-81
2021/05/29 02:19:09;;;;;;;1.00;1.00;;;;;;;;;;5070452;28;20052;-81
2021/05/29 02:21:36;;;;;;;1.02;1.02;;;;;;;;;;5053502;28;20524;-81
2021/05/29 02:24:03;;;;;;;1.00;1.00;;;;;;;;;;5104347;28;20131;-81
2021/05/29 02:26:30;;;;;;;1.02;1.02;;;;;;;;;;5071371;28;20132;-81
2021/05/29 02:28:57;;;;;;;1.40;0.90;;;;;;;;;;5071018;28;20045;-81
2021/05/29 02:31:24;;;;;;;1.48;1.00;;;;;;;;;;5093826;28;20048;-81
2021/05/29 02:33:51;;;;;;;1.63;0.90;;;;;;;;;;5095298;28;20033;-81
2021/05/29 02:36:18;;;;;;;1.00;1.00;;;;;;;;;;5059028;28;20402;-81
2021/05/29 02:38:45;;;;;;;1.55;1.00;;;;;;;;;;5071201;28;20045;-81
2021/05/29 02:41:12;;;;;;;2.05;1.92;;;;;;;;;;5067170;28;20083;-82
2021/05/29 02:43:39;;;;;;;1.00;1.00;;;;;;;;;;5067798;28;20052;-81
2021/05/29 02:46:11;;;;;;;2.45;1.15;;;;;;;;;;5070595;28;20048;-81
2021/05/29 02:48:45;;;;;;;1.00;1.00;;;;;;;;;;5070540;28;20056;-81
2021/05/29 02:51:11;;;;;;;1.10;1.10;;;;;;;;;;5070262;28;20036;-81
2021/05/29 02:53:38;;;;;;;1.35;1.35;;;;;;;;;;5068706;28;20531;-81
2021/05/29 02:56:05;;;;;;;1.10;1.10;;;;;;;;;;5068670;28;20036;-81
2021/05/29 02:58:32;;;;;;;1.65;1.00;;;;;;;;;;5070678;28;20045;-82
2021/05/29 03:00:58;;;;;;;1.95;1.00;;;;;;;;;;5069762;28;20051;-81
2021/05/29 03:03:26;;;;;;;1.13;0.90;;;;;;;;;;5063578;28;20051;-82
2021/05/29 03:05:53;;;;;;;2.88;1.00;;;;;;;;;;5079700;28;20040;-81
2021/05/29 03:08:20;;;;;;;1.00;0.90;;;;;;;;;;5088870;28;20044;-81
2021/05/29 03:10:49;;;;;;;1.20;1.00;;;;;;;;;;5062728;28;20119;-82
2021/05/29 03:13:16;;;;;;;3.10;1.10;;;;;;;;;;5070033;28;20045;-81
2021/05/29 03:15:44;;;;;;;1.15;1.15;;;;;;;;;;5057844;28;20048;-82
2021/05/29 03:18:10;;;;;;;1.17;1.08;;;;;;;;;;5064121;28;20098;-82
2021/05/29 03:20:37;;;;;;;0.90;0.90;;;;;;;;;;5067245;28;20052;-81
2021/05/29 03:23:05;;;;;;;1.88;1.08;;;;;;;;;;5070488;28;20063;-82
2021/05/29 03:25:32;;;;;;;1.45;1.17;;;;;;;;;;5068198;28;20413;-82
2021/05/29 03:27:59;;;;;;;9.20;1.20;;;;;;;;;;5068508;28;20047;-82
2021/05/29 03:30:27;;;;;;;1.55;1.45;;;;;;;;;;5060666;28;20049;-81
2021/05/29 03:32:55;;;;;;;1.67;1.35;;;;;;;;;;5066005;28;20082;-81
2021/05/29 03:35:23;;;;;;;2.67;1.05;;;;;;;;;;5065884;28;20048;-82
2021/05/29 03:37:50;;;;;;;1.20;1.20;;;;;;;;;;5065278;28;20036;-81
2021/05/29 03:40:17;;;;;;;2.17;1.05;;;;;;;;;;5069079;28;20045;-81
2021/05/29 03:42:44;;;;;;;1.05;1.05;;;;;;;;;;5059241;28;20091;-81
2021/05/29 03:45:12;;;;;;;0.95;0.95;;;;;;;;;;5066445;28;20050;-81
2021/05/29 03:47:40;;;;;;;1.45;1.00;;;;;;;;;;5066745;28;20040;-82
2021/05/29 03:50:07;;;;;;;4.43;0.93;;;;;;;;;;5102972;28;20036;-81
2021/05/29 03:52:34;;;;;;;1.40;1.20;;;;;;;;;;5072966;28;20064;-81
2021/05/29 03:55:01;;;;;;;1.38;1.15;;;;;;;;;;5066044;28;20515;-81
2021/05/29 03:57:27;;;;;;;1.45;1.17;;;;;;;;;;5072902;28;20037;-81
2021/05/29 03:59:54;;;;;;;1.20;1.20;;;;;;;;;;5060589;28;20119;-81
2021/05/29 04:02:21;;;;;;;1.63;1.20;;;;;;;;;;5071607;28;20036;-81
2021/05/29 04:04:48;;;;;;;1.10;1.10;;;;;;;;;;5074265;28;20494;-81
2021/05/29 04:07:14;;;;;;;1.75;1.65;;;;;;;;;;5052919;28;20106;-81
2021/05/29 04:09:41;;;;;;;1.00;1.00;;;;;;;;;;5098540;28;20040;-81
2021/05/29 04:12:08;;;;;;;1.90;1.23;;;;;;;;;;5088732;28;20040;-81
2021/05/29 04:14:35;;;;;;;1.85;1.13;;;;;;;;;;5073147;28;20028;-81
2021/05/29 04:17:02;;;;;;;3.92;1.20;;;;;;;;;;5065980;28;20067;-81
2021/05/29 04:19:29;;;;;;;1.45;1.40;;;;;;;;;;5073184;28;20504;-81
2021/05/29 04:21:56;;;;;;;1.23;1.23;;;;;;;;;;5071997;28;20393;-81
2021/05/29 04:24:23;;;;;;;1.48;1.48;;;;;;;;;;5054538;28;20536;-81
2021/05/29 04:26:50;;;;;;;1.17;1.17;;;;;;;;;;5103135;28;20044;-81
2021/05/29 04:29:17;;;;;;;1.48;1.20;;;;;;;;;;5071199;28;20032;-81
2021/05/29 04:31:43;;;;;;;1.63;1.50;;;;;;;;;;5061983;28;20036;-81
2021/05/29 04:34:10;;;;;;;1.15;1.15;;;;;;;;;;5071452;28;20448;-81
2021/05/29 04:36:37;;;;;;;1.42;1.33;;;;;;;;;;5102348;28;20048;-81
2021/05/29 04:39:04;;;;;;;3.00;2.22;;;;;;;;;;5072299;28;20094;-81
2021/05/29 04:41:32;;;;;;;1.20;1.10;;;;;;;;;;5070948;28;20040;-81
2021/05/29 04:43:59;;;;;;;1.13;1.13;;;;;;;;;;5073148;28;20128;-81
2021/05/29 04:46:27;;;;;;;1.30;1.20;;;;;;;;;;5070689;28;20036;-81
2021/05/29 04:48:54;;;;;;;3.10;1.10;;;;;;;;;;5071380;28;20037;-81
2021/05/29 04:51:21;;;;;;;1.35;1.10;;;;;;;;;;5063381;28;20589;-81
2021/05/29 04:53:48;;;;;;;2.13;1.10;;;;;;;;;;5093621;28;20513;-81
2021/05/29 04:56:16;;;;;;;6.05;1.20;;;;;;;;;;5072179;28;20037;-81
2021/05/29 04:58:43;;;;;;;3.08;1.30;;;;;;;;;;5070772;28;20072;-81
2021/05/29 05:01:10;;;;;;;2.38;1.65;;;;;;;;;;5072666;28;20040;-81
2021/05/29 05:03:37;;;;;;;1.63;1.58;;;;;;;;;;5051976;28;20052;-81
2021/05/29 05:06:05;;;;;;;2.05;0.93;;;;;;;;;;5071190;28;20378;-81
2021/05/29 05:08:32;;;;;;;2.28;1.00;;;;;;;;;;5071166;28;20047;-81
2021/05/29 05:10:59;;;;;;;1.10;1.00;;;;;;;;;;5065408;28;20375;-81
2021/05/29 05:13:26;;;;;;;1.10;1.10;;;;;;;;;;5057501;28;20059;-81
2021/05/29 05:15:53;;;;;;;1.30;1.30;;;;;;;;;;5092648;28;20552;-82
2021/05/29 05:18:21;;;;;;;1.20;1.20;;;;;;;;;;5072452;28;20024;-81
2021/05/29 05:20:48;;;;;;;1.00;1.00;;;;;;;;;;5069746;28;20467;-81
2021/05/29 05:23:14;;;;;;;1.10;1.10;;;;;;;;;;5070898;28;20355;-81
2021/05/29 05:25:41;;;;;;;1.10;1.10;;;;;;;;;;5072118;28;20089;-81
2021/05/29 05:28:12;;;;;;;2.92;1.30;;;;;;;;;;5070760;28;20053;-81
2021/05/29 05:30:41;;;;;;;1.40;1.00;;;;;;;;;;5067978;28;20116;-82
2021/05/29 05:33:08;;;;;;;1.15;1.15;;;;;;;;;;5058416;28;20044;-82
2021/05/29 05:35:35;;;;;;;1.00;1.00;;;;;;;;;;5071828;28;20033;-82
2021/05/29 05:38:02;;;;;;;1.00;1.00;;;;;;;;;;5070944;28;20036;-82
2021/05/29 05:40:29;;;;;;;2.50;1.10;;;;;;;;;;5071446;28;20052;-82
2021/05/29 05:42:56;;;;;;;1.00;1.00;;;;;;;;;;5065662;28;20355;-82
2021/05/29 05:45:22;;;;;;;2.45;1.30;;;;;;;;;;5054204;28;20044;-83
2021/05/29 05:47:49;;;;;;;1.00;1.00;;;;;;;;;;5071325;28;20051;-82
2021/05/29 05:50:16;;;;;;;1.10;1.10;;;;;;;;;;5069639;28;20478;-82
2021/05/29 05:52:43;;;;;;;1.20;1.10;;;;;;;;;;5053820;28;20037;-82
2021/05/29 05:55:12;;;;;;;1.00;1.00;;;;;;;;;;5066458;28;20127;-82
2021/05/29 05:57:38;;;;;;;2.15;0.93;;;;;;;;;;5069679;28;20080;-82
2021/05/29 06:00:09;;;;;;;1.38;1.00;;;;;;;;;;5070935;28;20048;-82
2021/05/29 06:02:36;;;;;;;1.75;1.00;;;;;;;;;;5050397;28;20065;-82
2021/05/29 06:05:04;;;;;;;1.00;1.00;;;;;;;;;;5070660;28;20047;-82
2021/05/29 06:07:30;;;;;;;1.27;1.00;;;;;;;;;;5069928;28;20391;-82
2021/05/29 06:09:57;;;;;;;2.25;1.55;;;;;;;;;;5070276;28;20041;-82
2021/05/29 06:12:24;;;;;;;2.45;1.10;;;;;;;;;;5057755;28;20159;-82
2021/05/29 06:20:22;;;;;;;1.00;1.00;;;;;;;;;;5070182;28;20591;-82
2021/05/29 06:22:48;;;;;;;3.40;1.17;;;;;;;;;;5052139;28;20094;-82
2021/05/29 06:25:16;;;;;;;2.33;1.20;;;;;;;;;;5057186;28;20049;-82
2021/05/29 06:27:42;;;;;;;1.73;1.00;;;;;;;;;;5061236;28;20605;-82
2021/05/29 06:30:10;;;;;;;1.00;1.00;;;;;;;;;;5057159;28;20040;-82
2021/05/29 06:32:37;;;;;;;1.20;1.10;;;;;;;;;;5065760;28;20033;-82
2021/05/29 06:35:05;;;;;;;0.95;0.95;;;;;;;;;;5080200;28;20386;-82
2021/05/29 06:37:33;;;;;;;0.90;0.90;;;;;;;;;;5067447;28;20443;-82
2021/05/29 06:40:00;;;;;;;3.90;1.50;;;;;;;;;;5070794;28;20508;-82
2021/05/29 06:42:26;;;;;;;2.10;0.90;;;;;;;;;;5067562;28;20051;-82
2021/05/29 06:44:53;;;;;;;0.90;0.90;;;;;;;;;;5069863;28;20036;-82
2021/05/29 06:47:20;;;;;;;2.85;1.00;;;;;;;;;;5067903;28;20048;-82
2021/05/29 06:49:47;;;;;;;0.90;0.82;;;;;;;;;;5068399;28;20041;-82
2021/05/29 06:52:16;;;;;;;2.00;0.90;;;;;;;;;;5061020;28;20502;-83
2021/05/29 07:00:08;;;;;;;1.38;0.90;;;;;;;;;;5068522;28;20040;-82
2021/05/29 07:02:35;;;;;;;2.25;0.80;;;;;;;;;;5050815;28;20163;-82
2021/05/29 07:05:03;;;;;;;0.90;0.90;;;;;;;;;;5064908;28;20069;-82
2021/05/29 07:07:30;;;;;;;0.95;0.80;;;;;;;;;;5065164;28;20453;-82
2021/05/29 07:09:58;;;;;;;0.95;0.82;;;;;;;;;;5068379;28;20032;-82
2021/05/29 07:12:25;;;;;;;1.52;1.42;;;;;;;;;;5067909;28;20048;-82
2021/05/29 07:14:51;;;;;;;1.45;0.90;;;;;;;;;;5066812;28;20036;-83
2021/05/29 07:17:18;;;;;;;1.33;0.90;;;;;;;;;;5069721;28;20086;-83
2021/05/29 07:19:45;;;;;;;1.67;0.80;;;;;;;;;;5063188;28;20544;-83
2021/05/29 07:22:12;;;;;;;0.80;0.80;;;;;;;;;;5061046;28;20608;-83
2021/05/29 07:24:39;;;;;;;0.90;0.90;;;;;;;;;;5068710;28;20045;-83
2021/05/29 07:27:06;;;;;;;1.98;1.27;;;;;;;;;;5070132;28;20048;-83
2021/05/29 07:29:32;;;;;;;1.38;0.88;;;;;;;;;;5101017;28;20119;-83
2021/05/29 07:31:59;;;;;;;3.10;0.90;;;;;;;;;;5063819;28;20498;-83
2021/05/29 07:34:26;;;;;;;1.10;1.00;;;;;;;;;;5056277;28;20390;-82
2021/05/29 07:36:53;;;;;;;0.90;0.90;;;;;;;;;;5051235;28;20033;-83
2021/05/29 07:39:20;;;;;;;0.95;0.80;;;;;;;;;;5067630;28;20037;-83
2021/05/29 07:41:47;;;;;;;0.80;0.80;;;;;;;;;;5099385;28;20044;-83
2021/05/29 07:44:13;;;;;;;0.77;0.77;;;;;;;;;;5068125;28;20040;-83
2021/05/29 07:46:40;;;;;;;0.85;0.85;;;;;;;;;;5050074;28;20124;-83
2021/05/29 07:49:07;;;;;;;0.73;0.73;;;;;;;;;;5068098;28;20033;-83
2021/05/29 07:51:36;;;;;;;0.80;0.80;;;;;;;;;;5068391;28;20115;-83
2021/05/29 07:54:05;;;;;;;1.50;0.70;;;;;;;;;;5056848;28;20039;-84
2021/05/29 07:56:32;;;;;;;1.50;0.77;;;;;;;;;;5065221;28;20040;-84
2021/05/29 07:59:04;;;;;;;0.82;0.70;;;;;;;;;;5067666;28;20704;-83
2021/05/29 08:01:31;;;;;;;1.38;0.70;;;;;;;;;;5069454;28;20463;-83
2021/05/29 08:03:58;;;;;;;0.70;0.70;;;;;;;;;;5082577;28;20177;-83
2021/05/29 08:06:26;;;;;;;0.77;0.77;;;;;;;;;;5068019;28;20060;-83
2021/05/29 08:08:53;;;;;;;0.95;0.90;;;;;;;;;;5096921;28;20033;-83
2021/05/29 08:11:24;;;;;;;2.35;0.80;;;;;;;;;;5073977;28;20082;-83
2021/05/29 08:13:51;;;;;;;1.00;0.70;;;;;;;;;;5084583;28;20127;-83
2021/05/29 08:16:19;;;;;;;0.70;0.70;;;;;;;;;;5065509;28;20052;-83
2021/05/29 08:18:46;;;;;;;2.78;0.70;;;;;;;;;;5068584;28;20123;-83
2021/05/29 08:21:13;;;;;;;1.75;0.80;;;;;;;;;;5067604;28;20048;-83
2021/05/29 08:23:40;;;;;;;2.80;0.77;;;;;;;;;;5059549;28;20040;-83
2021/05/29 08:26:08;;;;;;;1.35;0.70;;;;;;;;;;5064367;28;20114;-83
2021/05/29 08:28:35;;;;;;;1.52;0.70;;;;;;;;;;5068131;28;20034;-83
2021/05/29 08:31:02;;;;;;;1.05;0.80;;;;;;;;;;5099589;28;20127;-83
2021/05/29 08:33:29;;;;;;;0.73;0.60;;;;;;;;;;5072683;28;20064;-83
2021/05/29 08:35:56;;;;;;;2.17;0.70;;;;;;;;;;5080020;28;20446;-83
2021/05/29 08:38:23;;;;;;;0.60;0.60;;;;;;;;;;5083567;28;20103;-83
2021/05/29 08:40:51;;;;;;;2.72;0.60;;;;;;;;;;5070657;28;20933;-83
2021/05/29 08:43:18;;;;;;;0.60;0.60;;;;;;;;;;5062262;28;20041;-83
2021/05/29 08:45:45;;;;;;;1.85;0.68;;;;;;;;;;5071108;28;20506;-83
2021/05/29 08:48:12;;;;;;;1.38;0.60;;;;;;;;;;5068171;28;20044;-83
2021/05/29 08:51:12;;;;;;;0.60;0.60;;;;;;;;;;5069921;28;20051;-83
2021/05/29 08:53:26;;;;;;;2.88;0.70;;;;;;;;;;5095829;28;20047;-83
2021/05/29 08:55:53;;;;;;;1.13;0.70;;;;;;;;;;5068892;28;20036;-83
2021/05/29 08:58:20;;;;;;;1.45;0.68;;;;;;;;;;5054410;28;20076;-84
2021/05/29 09:00:47;;;;;;;0.63;0.63;;;;;;;;;;5084306;28;20052;-83
2021/05/29 09:03:15;;;;;;;2.03;0.60;;;;;;;;;;5072437;28;20123;-83
2021/05/29 09:05:42;;;;;;;2.95;0.60;;;;;;;;;;5066570;28;20091;-83
2021/05/29 09:08:10;;;;;;;0.73;0.60;;;;;;;;;;5100677;28;20157;-83
2021/05/29 09:10:40;;;;;;;0.68;0.60;;;;;;;;;;5053793;28;20072;-83
2021/05/29 09:13:10;;;;;;;2.50;0.60;;;;;;;;;;5052949;28;20052;-83
2021/05/29 09:15:39;;;;;;;3.72;0.60;;;;;;;;;;5052690;28;20052;-83
2021/05/29 09:18:06;;;;;;;0.60;0.60;;;;;;;;;;5056823;28;20095;-83
2021/05/29 09:20:33;;;;;;;0.60;0.60;;;;;;;;;;5065416;28;20044;-83
2021/05/29 09:23:01;;;;;;;1.65;0.68;;;;;;;;;;5074667;28;20036;-83
2021/05/29 09:25:28;;;;;;;2.58;0.55;;;;;;;;;;5070764;28;20048;-83
2021/05/29 09:27:56;;;;;;;0.63;0.63;;;;;;;;;;5071359;28;20136;-83
2021/05/29 09:30:35;;;;;;;0.70;0.65;;;;;;;;;;5070466;28;20036;-83
2021/05/29 09:33:13;;;;;;;2.75;0.55;;;;;;;;;;5065229;28;20049;-83
2021/05/29 09:35:40;;;;;;;6.38;0.98;;;;;;;;;;5056874;28;20052;-82
2021/05/29 09:38:08;;;;;;;0.60;0.60;;;;;;;;;;5066880;28;20486;-82
2021/05/29 09:40:35;;;;;;;0.60;0.60;;;;;;;;;;5062774;28;20044;-83
2021/05/29 09:43:04;;;;;;;0.60;0.60;;;;;;;;;;5059307;28;20041;-83
2021/05/29 09:45:32;;;;;;;0.65;0.65;;;;;;;;;;5066404;28;20107;-83
2021/05/29 09:48:18;;;;;;;1.77;0.60;;;;;;;;;;5066492;28;20040;-83
2021/05/29 09:51:05;;;;;;;1.85;0.60;;;;;;;;;;5070833;28;20036;-83
2021/05/29 09:53:39;;;;;;;2.30;0.60;;;;;;;;;;5066351;28;20049;-83
2021/05/29 09:56:07;;;;;;;0.52;0.50;;;;;;;;;;5085915;28;20516;-83
2021/05/29 09:58:54;;;;;;;0.95;0.70;;;;;;;;;;5070624;28;20044;-83
2021/05/29 10:01:37;;;;;;;2.70;0.65;;;;;;;;;;5063271;28;20041;-83
2021/05/29 10:04:05;;;;;;;0.95;0.60;;;;;;;;;;5087885;28;20128;-83
2021/05/29 10:06:32;;;;;;;1.38;0.68;;;;;;;;;;5092382;28;20131;-83
2021/05/29 10:08:59;;;;;;;0.63;0.60;;;;;;;;;;5096384;28;20094;-83
2021/05/29 10:11:27;;;;;;;0.50;0.50;;;;;;;;;;5065458;28;20516;-83
2021/05/29 10:13:54;;;;;;;1.23;0.60;;;;;;;;;;5071193;28;20524;-84
2021/05/29 10:16:21;;;;;;;0.57;0.57;;;;;;;;;;5065285;28;20044;-83
2021/05/29 10:18:49;;;;;;;0.60;0.60;;;;;;;;;;5064878;28;20127;-83
2021/05/29 10:21:18;;;;;;;4.18;0.60;;;;;;;;;;5068522;28;20055;-83
2021/05/29 10:23:45;;;;;;;0.60;0.57;;;;;;;;;;5059206;28;20531;-83
2021/05/29 10:26:14;;;;;;;0.60;0.60;;;;;;;;;;5057881;28;20481;-83
2021/05/29 10:28:41;;;;;;;0.50;0.50;;;;;;;;;;5056795;28;20040;-83
2021/05/29 10:31:08;;;;;;;1.17;0.60;;;;;;;;;;5059294;28;20052;-83
2021/05/29 10:33:45;;;;;;;0.50;0.50;;;;;;;;;;5063148;28;20146;-83
2021/05/29 10:36:32;;;;;;;0.50;0.50;;;;;;;;;;5071022;28;20049;-83
2021/05/29 10:38:58;;;;;;;2.40;0.50;;;;;;;;;;5059782;28;20067;-83
2021/05/29 10:41:48;;;;;;;1.38;0.80;;;;;;;;;;5063907;28;20047;-83
2021/05/29 10:44:33;;;;;;;1.65;0.70;;;;;;;;;;5055948;28;20143;-83
2021/05/29 10:47:04;;;;;;;2.50;0.60;;;;;;;;;;5101808;28;20043;-83
2021/05/29 10:49:47;;;;;;;0.50;0.50;;;;;;;;;;5101353;28;20105;-84
2021/05/29 10:52:41;;;;;;;0.52;0.50;;;;;;;;;;5091665;28;20842;-83
2021/05/29 10:55:12;;;;;;;0.75;0.60;;;;;;;;;;5099560;28;20661;-83
2021/05/29 10:58:14;;;;;;;0.93;0.50;;;;;;;;;;5048910;28;20548;-83
2021/05/29 11:00:41;;;;;;;2.07;0.50;;;;;;;;;;4998795;28;20118;-83
2021/05/29 11:03:17;;;;;;;0.50;0.50;;;;;;;;;;5046770;28;20299;-83
2021/05/29 11:05:48;;;;;;;3.05;0.70;;;;;;;;;;5026119;28;20134;-83
2021/05/29 11:08:33;;;;;;;1.85;0.50;;;;;;;;;;5036486;28;20062;-83
2021/05/29 11:11:00;;;;;;;0.85;0.50;;;;;;;;;;5023285;28;20041;-83
2021/05/29 11:13:56;;;;;;;0.88;0.60;;;;;;;;;;5029800;28;20190;-83
2021/05/29 11:16:22;;;;;;;3.03;0.50;;;;;;;;;;5009363;28;20513;-83
2021/05/29 11:19:07;;;;;;;0.40;0.40;;;;;;;;;;5028519;28;20061;-83
2021/05/29 11:21:54;;;;;;;0.93;0.40;;;;;;;;;;5029828;28;20049;-83
2021/05/29 11:24:21;;;;;;;2.55;0.35;;;;;;;;;;5039351;28;20609;-83
2021/05/29 11:26:48;;;;;;;2.33;0.50;;;;;;;;;;5038818;28;20086;-83
2021/05/29 11:29:14;;;;;;;1.98;0.50;;;;;;;;;;5028179;28;20053;-83
2021/05/29 11:31:45;;;;;;;0.60;0.40;;;;;;;;;;5046025;28;20068;-83
2021/05/29 11:34:12;;;;;;;1.08;0.88;;;;;;;;;;5037612;28;20110;-84
2021/05/29 11:36:42;;;;;;;0.50;0.50;;;;;;;;;;5065117;28;20047;-83
2021/05/29 11:39:10;;;;;;;1.10;0.50;;;;;;;;;;5067780;28;20036;-83
2021/05/29 11:41:37;;;;;;;0.40;0.40;;;;;;;;;;5068267;28;20531;-83
2021/05/29 11:44:05;;;;;;;0.40;0.40;;;;;;;;;;5066182;28;20043;-83
2021/05/29 11:46:32;;;;;;;0.40;0.40;;;;;;;;;;5067378;28;20489;-82
2021/05/29 11:49:06;;;;;;;0.47;0.47;;;;;;;;;;5067833;28;20048;-83
2021/05/29 11:51:36;;;;;;;0.70;0.40;;;;;;;;;;5065780;28;20037;-83
2021/05/29 11:54:07;;;;;;;0.93;0.50;;;;;;;;;;5057984;28;20055;-83
2021/05/29 11:56:38;;;;;;;1.10;0.40;;;;;;;;;;5068800;28;20584;-83
2021/05/29 11:59:07;;;;;;;0.50;0.40;;;;;;;;;;5067115;28;20043;-83
2021/05/29 12:01:35;;;;;;;1.48;0.40;;;;;;;;;;5067881;28;20045;-83
2021/05/29 12:04:06;;;;;;;1.25;0.40;;;;;;;;;;5065538;28;20037;-83
2021/05/29 12:06:36;;;;;;;0.40;0.30;;;;;;;;;;5069870;28;20067;-83
2021/05/29 12:09:04;;;;;;;1.45;0.40;;;;;;;;;;5066824;28;20127;-83
2021/05/29 12:11:32;;;;;;;1.50;0.40;;;;;;;;;;5071878;28;20586;-83
2021/05/29 12:14:11;;;;;;;0.40;0.40;;;;;;;;;;5072874;28;20033;-83
2021/05/29 12:16:59;;;;;;;2.17;0.40;;;;;;;;;;5071390;28;20531;-83
2021/05/29 12:19:36;;;;;;;1.58;0.40;;;;;;;;;;5070607;28;20040;-83
2021/05/29 12:22:16;;;;;;;1.67;0.40;;;;;;;;;;5063699;28;20040;-80
2021/05/29 12:24:44;;;;;;;0.50;0.50;;;;;;;;;;5061156;28;20045;-79
2021/05/29 12:27:18;;;;;;;0.63;0.50;;;;;;;;;;5062413;28;20127;-79
2021/05/29 12:29:45;;;;;;;0.50;0.50;;;;;;;;;;5078935;28;20087;-79
2021/05/29 12:32:28;;;;;;;0.50;0.50;;;;;;;;;;5084559;28;20076;-79
2021/05/29 12:35:27;;;;;;;1.95;0.50;;;;;;;;;;5073279;28;20047;-79
2021/05/29 12:37:54;;;;;;;1.10;0.50;;;;;;;;;;5073631;28;20429;-79
2021/05/29 12:40:25;;;;;;;0.93;0.93;;;;;;;;;;5066343;28;20096;-79
2021/05/29 12:42:54;;;;;;;0.50;0.50;;;;;;;;;;5062492;28;20036;-79
2021/05/29 12:45:24;;;;;;;0.63;0.60;;;;;;;;;;5073722;28;20112;-79
2021/05/29 12:47:55;;;;;;;0.50;0.50;;;;;;;;;;5071104;28;20032;-79
2021/05/29 12:50:23;;;;;;;0.52;0.52;;;;;;;;;;5072625;28;20466;-79
2021/05/29 12:52:50;;;;;;;1.05;0.50;;;;;;;;;;5072779;28;20059;-79
2021/05/29 12:55:21;;;;;;;0.50;0.50;;;;;;;;;;5074073;28;20094;-79
2021/05/29 12:57:48;;;;;;;1.10;0.50;;;;;;;;;;5074373;28;20040;-79
2021/05/29 13:00:15;;;;;;;0.50;0.50;;;;;;;;;;5073393;28;20079;-79
2021/05/29 13:09:24;;;;;;;0.50;0.50;;;;;;;;;;5049339;28;20414;-79
2021/05/29 13:11:51;;;;;;;0.68;0.60;;;;;;;;;;5068911;28;20044;-79
2021/05/29 13:14:27;;;;;;;2.25;0.85;;;;;;;;;;5071293;28;20035;-79
2021/05/29 13:16:58;;;;;;;0.65;0.50;;;;;;;;;;5071803;28;20108;-79
2021/05/29 13:19:26;;;;;;;0.60;0.45;;;;;;;;;;5069397;28;20032;-79
2021/05/29 13:21:56;;;;;;;1.50;0.50;;;;;;;;;;5066822;28;20099;-79
2021/05/29 13:24:42;;;;;;;0.30;0.30;;;;;;;;;;5103024;28;20044;-79
2021/05/29 13:27:10;;;;;;;3.03;0.40;;;;;;;;;;5103929;28;20424;-79
2021/05/29 13:29:38;;;;;;;1.23;0.50;;;;;;;;;;5090086;28;20068;-79
2021/05/29 13:32:05;;;;;;;3.13;0.40;;;;;;;;;;5071076;28;20056;-79
2021/05/29 13:34:32;;;;;;;0.80;0.40;;;;;;;;;;5040266;28;20067;-79
2021/05/29 13:36:59;;;;;;;0.70;0.70;;;;;;;;;;5072833;28;20036;-79
2021/05/29 13:39:26;;;;;;;0.68;0.40;;;;;;;;;;5064454;28;20446;-79
2021/05/29 13:41:52;;;;;;;0.40;0.40;;;;;;;;;;5059699;28;20068;-79
2021/05/29 13:44:19;;;;;;;0.50;0.40;;;;;;;;;;5084181;28;20548;-79
2021/05/29 13:46:46;;;;;;;0.50;0.47;;;;;;;;;;5070795;28;20123;-79
2021/05/29 13:49:13;;;;;;;0.85;0.50;;;;;;;;;;5071266;28;20045;-79
2021/05/29 13:51:40;;;;;;;1.17;0.30;;;;;;;;;;5053280;28;20037;-79
2021/05/29 13:54:06;;;;;;;0.90;0.40;;;;;;;;;;5046903;28;20497;-79
2021/05/29 13:56:35;;;;;;;0.30;0.30;;;;;;;;;;5071271;28;20049;-79
2021/05/29 13:59:03;;;;;;;2.35;0.50;;;;;;;;;;5070524;28;20036;-79
2021/05/29 14:01:31;;;;;;;1.35;0.40;;;;;;;;;;5071499;28;20049;-79
2021/05/29 14:03:58;;;;;;;0.43;0.40;;;;;;;;;;5070091;28;20060;-79
2021/05/29 14:06:24;;;;;;;0.40;0.30;;;;;;;;;;5069930;28;20036;-79
2021/05/29 14:08:52;;;;;;;0.40;0.30;;;;;;;;;;5067815;28;20094;-79
2021/05/29 14:11:26;;;;;;;0.40;0.40;;;;;;;;;;5059801;28;20109;-79
2021/05/29 14:13:54;;;;;;;3.70;0.50;;;;;;;;;;5102047;28;20564;-79
2021/05/29 14:16:35;;;;;;;0.30;0.30;;;;;;;;;;5085435;28;20032;-79
2021/05/29 14:19:03;;;;;;;0.40;0.40;;;;;;;;;;5068715;28;20089;-79
2021/05/29 14:21:30;;;;;;;0.43;0.43;;;;;;;;;;5069792;28;20040;-79
2021/05/29 14:23:57;;;;;;;1.00;0.30;;;;;;;;;;5063644;28;20094;-79
2021/05/29 14:26:29;;;;;;;0.30;0.30;;;;;;;;;;5070923;28;20044;-80
2021/05/29 14:28:56;;;;;;;0.40;0.40;;;;;;;;;;5068732;28;20119;-80
2021/05/29 14:31:23;;;;;;;1.67;0.30;;;;;;;;;;5067041;28;20098;-79
2021/05/29 14:33:50;;;;;;;0.60;0.40;;;;;;;;;;5057025;28;20071;-79
2021/05/29 14:36:21;;;;;;;0.63;0.40;;;;;;;;;;5062381;28;20064;-79
2021/05/29 14:38:51;;;;;;;1.55;0.40;;;;;;;;;;5050072;28;20374;-79
2021/05/29 14:41:18;;;;;;;0.50;0.40;;;;;;;;;;5095719;28;20131;-79
2021/05/29 14:43:45;;;;;;;0.40;0.40;;;;;;;;;;5058278;28;20032;-79
2021/05/29 14:46:12;;;;;;;0.40;0.40;;;;;;;;;;5054646;28;20631;-79
2021/05/29 14:48:39;;;;;;;1.00;0.63;;;;;;;;;;5094678;28;20068;-79
2021/05/29 14:51:17;;;;;;;1.65;0.40;;;;;;;;;;5067741;28;20076;-79
2021/05/29 14:53:48;;;;;;;1.60;0.50;;;;;;;;;;5069198;28;20047;-79
2021/05/29 14:56:15;;;;;;;2.65;0.50;;;;;;;;;;5048401;28;20428;-79
2021/05/29 14:58:42;;;;;;;1.63;0.47;;;;;;;;;;5064082;28;20040;-79
2021/05/29 15:01:09;;;;;;;1.05;0.40;;;;;;;;;;5066087;28;20040;-79
2021/05/29 15:03:38;;;;;;;4.70;0.50;;;;;;;;;;5069295;28;20040;-79
2021/05/29 15:06:05;;;;;;;1.17;0.50;;;;;;;;;;5068527;28;20393;-79
2021/05/29 15:08:33;;;;;;;0.73;0.50;;;;;;;;;;5065024;28;20028;-79
2021/05/29 15:11:05;;;;;;;1.13;0.50;;;;;;;;;;5090335;28;20124;-79